createdAt,value
2018-04-20T00:01:09.931Z,14.03
2018-04-20T00:03:41.137Z,18.60
2018-04-20T00:06:12.242Z,15.13
2018-04-20T00:08:44.137Z,13.43
2018-04-20T00:11:16.157Z,17.07
2018-04-20T00:13:47.075Z,16.00
2018-04-20T00:16:18.357Z,15.50
2018-04-20T00:18:50.774Z,16.77
2018-04-20T00:21:21.812Z,17.33
2018-04-20T00:23:53.413Z,19.33
2018-04-20T00:26:24.658Z,20.90
2018-04-20T00:28:55.837Z,16.80
2018-04-20T00:31:27.484Z,17.93
2018-04-20T00:33:59.270Z,17.63
2018-04-20T00:36:30.258Z,16.33
2018-04-20T00:39:01.158Z,15.60
2018-04-20T00:41:32.202Z,16.90
2018-04-20T00:44:03.381Z,19.67
2018-04-20T00:46:34.352Z,21.27
2018-04-20T00:49:05.937Z,17.73
2018-04-20T00:51:36.762Z,14.80
2018-04-20T00:54:18.294Z,13.80
2018-04-20T00:56:49.435Z,21.07
2018-04-20T00:59:20.467Z,16.37
2018-04-20T01:01:51.483Z,21.30
2018-04-20T01:04:22.429Z,16.63
2018-04-20T01:06:53.720Z,17.33
2018-04-20T01:09:24.658Z,21.07
2018-04-20T01:11:55.564Z,16.20
2018-04-20T01:14:26.701Z,18.57
2018-04-20T01:16:57.577Z,17.93
2018-04-20T01:19:29.186Z,21.17
2018-04-20T01:22:00.240Z,18.60
2018-04-20T01:24:31.065Z,21.27
2018-04-20T01:27:02.067Z,22.77
2018-04-20T01:29:33.164Z,18.83
2018-04-20T01:32:04.194Z,19.00
2018-04-20T01:34:35.021Z,20.23
2018-04-20T01:37:06.333Z,19.73
2018-04-20T01:39:37.157Z,18.93
2018-04-20T01:42:08.191Z,18.60
2018-04-20T01:44:40.070Z,18.60
2018-04-20T01:47:11.806Z,19.03
2018-04-20T01:49:42.697Z,18.83
2018-04-20T01:52:13.957Z,20.10
2018-04-20T01:54:44.807Z,20.90
2018-04-20T01:57:15.768Z,18.23
2018-04-20T01:59:46.931Z,20.83
2018-04-20T02:02:17.896Z,19.17
2018-04-20T02:04:48.789Z,20.23
2018-04-20T02:07:20.078Z,17.07
2018-04-20T02:09:51.001Z,21.30
2018-04-20T02:12:22.003Z,23.17
2018-04-20T02:14:53.921Z,24.47
2018-04-20T02:17:25.069Z,23.10
2018-04-20T02:19:55.944Z,23.70
2018-04-20T02:22:28.969Z,22.47
2018-04-20T02:24:59.829Z,24.57
2018-04-20T02:27:30.892Z,18.67
2018-04-20T02:30:02.487Z,22.60
2018-04-20T02:32:33.643Z,25.37
2018-04-20T02:35:04.506Z,21.83
2018-04-20T02:37:35.506Z,19.63
2018-04-20T02:40:06.394Z,21.50
2018-04-20T02:42:37.289Z,23.87
2018-04-20T02:45:08.160Z,21.60
2018-04-20T02:47:39.506Z,20.27
2018-04-20T02:50:11.174Z,21.33
2018-04-20T02:52:42.936Z,22.33
2018-04-20T02:55:13.921Z,25.27
2018-04-20T02:57:45.088Z,24.70
2018-04-20T03:00:16.484Z,23.30
2018-04-20T03:02:48.521Z,29.70
2018-04-20T03:05:19.362Z,23.07
2018-04-20T03:07:50.797Z,26.10
2018-04-20T03:10:21.659Z,24.93
2018-04-20T03:12:53.754Z,24.20
2018-04-20T03:15:24.593Z,23.93
2018-04-20T03:17:55.598Z,26.53
2018-04-20T03:20:27.858Z,25.47
2018-04-20T03:22:58.831Z,22.33
2018-04-20T03:25:29.806Z,26.40
2018-04-20T03:28:01.162Z,29.43
2018-04-20T03:30:31.972Z,22.50
2018-04-20T03:33:02.988Z,28.83
2018-04-20T03:35:34.127Z,27.37
2018-04-20T03:38:05.175Z,26.33
2018-04-20T03:40:36.046Z,27.20
2018-04-20T03:43:07.493Z,25.20
2018-04-20T03:45:38.375Z,25.33
2018-04-20T03:48:10.059Z,25.07
2018-04-20T03:50:41.331Z,29.90
2018-04-20T03:53:12.272Z,29.17
2018-04-20T03:55:43.180Z,26.57
2018-04-20T03:58:14.205Z,27.50
2018-04-20T04:00:46.233Z,29.07
2018-04-20T04:03:17.373Z,30.17
2018-04-20T04:05:48.208Z,29.77
2018-04-20T04:08:19.805Z,30.03
2018-04-20T04:10:51.450Z,30.50
2018-04-20T04:13:23.082Z,31.80
2018-04-20T04:15:54.722Z,31.53
2018-04-20T04:20:37.184Z,33.00
2018-04-20T04:23:18.546Z,31.90
2018-04-20T04:26:00.651Z,30.37
2018-04-20T04:28:32.238Z,33.90
2018-04-20T04:31:03.277Z,34.17
2018-04-20T04:33:35.329Z,33.23
2018-04-20T04:36:06.228Z,30.70
2018-04-20T04:38:37.084Z,31.63
2018-04-20T04:41:09.269Z,36.43
2018-04-20T04:43:41.398Z,35.20
2018-04-20T04:46:12.946Z,34.63
2018-04-20T04:48:44.548Z,35.20
2018-04-20T04:51:15.722Z,34.97
2018-04-20T04:53:46.624Z,35.30
2018-04-20T04:56:17.785Z,33.67
2018-04-20T04:58:48.603Z,39.70
2018-04-20T05:01:20.421Z,38.13
2018-04-20T05:03:52.281Z,28.63
2018-04-20T05:06:23.441Z,32.80
2018-04-20T05:08:54.321Z,36.33
2018-04-20T05:11:25.589Z,33.67
2018-04-20T05:13:57.793Z,31.10
2018-04-20T05:16:28.853Z,31.33
2018-04-20T05:18:59.877Z,32.83
2018-04-20T05:21:30.873Z,32.53
2018-04-20T05:24:02.782Z,29.90
2018-04-20T05:26:35.017Z,33.30
2018-04-20T05:29:07.561Z,36.27
2018-04-20T05:31:39.481Z,33.07
2018-04-20T05:34:10.317Z,38.47
2018-04-20T05:36:42.294Z,35.23
2018-04-20T05:39:13.199Z,32.10
2018-04-20T05:41:44.213Z,32.17
2018-04-20T05:44:15.738Z,33.10
2018-04-20T05:46:47.364Z,39.07
2018-04-20T05:49:18.433Z,30.33
2018-04-20T05:51:50.049Z,26.60
2018-04-20T05:54:22.313Z,33.40
2018-04-20T05:56:53.891Z,30.00
2018-04-20T05:59:26.020Z,27.37
2018-04-20T06:01:57.282Z,33.60
2018-04-20T06:04:28.816Z,31.87
2018-04-20T06:07:01.757Z,32.57
2018-04-20T06:09:45.358Z,26.13
2018-04-20T06:12:18.376Z,23.30
2018-04-20T06:14:49.902Z,24.23
2018-04-20T06:17:22.182Z,25.87
2018-04-20T06:19:54.532Z,28.57
2018-04-20T06:22:26.630Z,22.20
2018-04-20T06:25:03.449Z,28.43
2018-04-20T06:27:38.209Z,22.83
2018-04-20T06:30:09.933Z,25.83
2018-04-20T06:32:44.395Z,25.67
2018-04-20T06:35:16.543Z,22.90
2018-04-20T06:37:49.666Z,26.13
2018-04-20T06:40:23.664Z,24.57
2018-04-20T06:42:55.677Z,23.43
2018-04-20T06:45:26.873Z,25.67
2018-04-20T06:47:58.582Z,24.23
2018-04-20T06:50:29.826Z,23.13
2018-04-20T06:53:01.032Z,23.20
2018-04-20T06:55:32.882Z,25.43
2018-04-20T06:58:05.918Z,21.93
2018-04-20T07:00:37.647Z,23.43
2018-04-20T07:03:09.237Z,20.97
2018-04-20T07:05:40.906Z,20.43
2018-04-20T07:08:12.396Z,21.87
2018-04-20T07:10:45.655Z,22.20
2018-04-20T07:13:19.348Z,22.93
2018-04-20T07:15:51.147Z,20.43
2018-04-20T07:18:22.214Z,21.03
2018-04-20T07:20:53.471Z,24.33
2018-04-20T07:23:25.082Z,23.20
2018-04-20T07:25:56.002Z,23.67
2018-04-20T07:28:27.697Z,24.33
2018-04-20T07:30:58.682Z,26.87
2018-04-20T07:33:31.071Z,21.03
2018-04-20T07:36:02.597Z,23.43
2018-04-20T07:38:34.806Z,24.07
2018-04-20T07:41:05.677Z,23.53
2018-04-20T07:43:37.421Z,21.87
2018-04-20T07:46:08.915Z,20.83
2018-04-20T07:48:39.943Z,20.53
2018-04-20T07:51:12.346Z,20.80
2018-04-20T07:53:43.470Z,20.40
2018-04-20T07:56:14.381Z,23.17
2018-04-20T07:58:45.364Z,21.00
2018-04-20T08:01:17.084Z,19.13
2018-04-20T08:03:47.997Z,16.20
2018-04-20T08:06:18.851Z,19.93
2018-04-20T08:08:54.052Z,18.57
2018-04-20T08:11:25.497Z,17.63
2018-04-20T08:13:57.534Z,18.93
2018-04-20T08:16:33.030Z,18.80
2018-04-20T08:19:05.498Z,16.03
2018-04-20T08:21:37.189Z,17.43
2018-04-20T08:24:08.413Z,17.60
2018-04-20T08:26:39.755Z,17.03
2018-04-20T08:29:11.523Z,16.43
2018-04-20T08:31:42.365Z,15.37
2018-04-20T08:34:13.289Z,18.43
2018-04-20T08:36:45.434Z,16.57
2018-04-20T08:39:25.477Z,14.90
2018-04-20T08:41:56.681Z,14.27
2018-04-20T08:44:28.284Z,16.53
2018-04-20T08:46:59.864Z,14.70
2018-04-20T08:49:30.717Z,18.33
2018-04-20T08:52:01.673Z,16.53
2018-04-20T08:54:32.845Z,12.37
2018-04-20T08:57:04.323Z,13.33
2018-04-20T08:59:35.334Z,13.83
2018-04-20T09:02:06.921Z,17.73
2018-04-20T09:04:38.019Z,15.37
2018-04-20T09:07:08.933Z,14.93
2018-04-20T09:09:39.922Z,14.67
2018-04-20T09:12:11.538Z,13.73
2018-04-20T09:14:44.626Z,15.53
2018-04-20T09:17:17.754Z,16.33
2018-04-20T09:19:49.004Z,15.53
2018-04-20T09:22:19.870Z,13.40
2018-04-20T09:24:56.437Z,16.80
2018-04-20T09:27:28.577Z,13.17
2018-04-20T09:30:00.165Z,13.67
2018-04-20T09:32:31.112Z,16.97
2018-04-20T09:35:02.005Z,14.00
2018-04-20T09:37:33.829Z,14.83
2018-04-20T09:40:05.054Z,13.60
2018-04-20T09:42:35.922Z,21.37
2018-04-20T09:45:15.973Z,13.47
2018-04-20T09:47:46.875Z,13.77
2018-04-20T09:50:19.105Z,15.03
2018-04-20T09:52:50.002Z,14.47
2018-04-20T09:55:21.068Z,14.93
2018-04-20T09:57:52.367Z,16.07
2018-04-20T10:00:23.528Z,15.33
2018-04-20T10:02:54.537Z,14.53
2018-04-20T10:05:26.639Z,17.07
2018-04-20T10:07:57.749Z,14.20
2018-04-20T10:10:28.754Z,14.43
2018-04-20T10:13:00.765Z,10.83
2018-04-20T10:15:31.923Z,16.13
2018-04-20T10:18:02.768Z,16.07
2018-04-20T10:20:34.597Z,15.60
2018-04-20T10:23:05.726Z,12.67
2018-04-20T10:25:36.762Z,16.30
2018-04-20T10:28:07.735Z,14.13
2018-04-20T10:30:38.584Z,15.07
2018-04-20T10:33:09.456Z,14.60
2018-04-20T10:35:41.508Z,16.30
2018-04-20T10:38:12.396Z,14.93
2018-04-20T10:40:43.339Z,16.73
2018-04-20T10:43:14.173Z,15.17
2018-04-20T10:45:45.206Z,16.27
2018-04-20T10:48:16.326Z,15.90
2018-04-20T10:50:47.243Z,17.00
2018-04-20T10:53:18.861Z,16.03
2018-04-20T10:55:49.916Z,17.50
2018-04-20T10:58:20.761Z,18.63
2018-04-20T11:00:52.388Z,20.57
2018-04-20T11:03:23.278Z,18.30
2018-04-20T11:05:56.987Z,15.97
2018-04-20T11:08:27.907Z,19.50
2018-04-20T11:10:59.677Z,19.70
2018-04-20T11:13:30.542Z,18.23
2018-04-20T11:16:01.401Z,20.00
2018-04-20T11:18:33.317Z,18.00
2018-04-20T11:21:04.221Z,19.20
2018-04-20T11:23:35.101Z,19.17
2018-04-20T11:26:06.101Z,17.67
2018-04-20T11:28:38.708Z,20.73
2018-04-20T11:31:09.910Z,19.33
2018-04-20T11:33:40.745Z,16.77
2018-04-20T11:36:11.962Z,20.97
2018-04-20T11:38:42.790Z,18.23
2018-04-20T11:41:13.770Z,20.20
2018-04-20T11:43:47.594Z,21.43
2018-04-20T11:46:19.205Z,21.43
2018-04-20T11:48:52.385Z,21.17
2018-04-20T11:51:24.293Z,24.77
2018-04-20T11:53:56.494Z,23.47
2018-04-20T11:56:27.661Z,24.57
2018-04-20T11:58:58.538Z,27.10
2018-04-20T12:01:30.106Z,23.07
2018-04-20T12:04:01.746Z,23.00
2018-04-20T12:06:33.033Z,25.40
2018-04-20T12:09:05.016Z,27.10
2018-04-20T12:11:36.061Z,33.20
2018-04-20T12:14:06.879Z,27.57
2018-04-20T12:16:38.257Z,28.30
2018-04-20T12:19:09.754Z,30.07
2018-04-20T12:21:41.393Z,29.63
2018-04-20T12:24:12.354Z,29.17
2018-04-20T12:26:43.498Z,33.73
2018-04-20T12:29:15.085Z,30.27
2018-04-20T12:31:46.373Z,32.27
2018-04-20T12:34:17.293Z,31.77
2018-04-20T12:36:48.182Z,30.70
2018-04-20T12:39:21.914Z,34.13
2018-04-20T12:41:53.053Z,34.23
2018-04-20T12:44:24.004Z,34.10
2018-04-20T12:46:55.485Z,31.97
2018-04-20T12:49:26.342Z,29.67
2018-04-20T12:51:58.142Z,28.80
2018-04-20T12:54:29.009Z,30.03
2018-04-20T12:57:00.203Z,30.77
2018-04-20T12:59:31.035Z,29.80
2018-04-20T13:02:01.888Z,28.97
2018-04-20T13:04:33.008Z,28.50
2018-04-20T13:07:04.790Z,28.97
2018-04-20T13:09:35.661Z,27.40
2018-04-20T13:12:06.696Z,23.37
2018-04-20T13:14:37.521Z,23.40
2018-04-20T13:17:08.744Z,24.07
2018-04-20T13:19:39.632Z,38.13
2018-04-20T13:22:10.703Z,39.10
2018-04-20T13:24:41.629Z,36.43
2018-04-20T13:27:12.895Z,38.13
2018-04-20T13:29:44.214Z,37.30
2018-04-20T13:32:16.027Z,31.60
2018-04-20T13:34:46.882Z,30.30
2018-04-20T13:37:18.555Z,32.80
2018-04-20T13:39:49.365Z,33.30
2018-04-20T13:42:20.325Z,35.47
2018-04-20T13:44:51.209Z,34.87
2018-04-20T13:47:39.581Z,29.50
2018-04-20T13:50:12.049Z,25.23
2018-04-20T13:52:44.505Z,22.53
2018-04-20T13:55:16.236Z,20.33
2018-04-20T13:57:47.472Z,23.23
2018-04-20T14:00:18.294Z,21.07
2018-04-20T14:02:49.222Z,25.47
2018-04-20T14:05:20.081Z,21.27
2018-04-20T14:07:52.125Z,17.87
2018-04-20T14:10:23.622Z,25.23
2018-04-20T14:12:54.625Z,27.30
2018-04-20T14:15:25.476Z,30.70
2018-04-20T14:17:56.344Z,28.17
2018-04-20T14:20:28.245Z,25.63
2018-04-20T14:22:59.241Z,28.50
2018-04-20T14:25:30.886Z,23.60
2018-04-20T14:28:01.888Z,27.73
2018-04-20T14:30:32.703Z,40.57
2018-04-20T14:33:03.985Z,36.43
2018-04-20T14:35:34.817Z,38.77
2018-04-20T14:38:05.757Z,35.57
2018-04-20T14:40:36.890Z,30.10
2018-04-20T14:43:07.937Z,31.03
2018-04-20T14:45:38.802Z,29.83
2018-04-20T14:48:09.982Z,24.20
2018-04-20T14:50:40.813Z,22.97
2018-04-20T14:53:11.694Z,24.43
2018-04-20T14:55:43.600Z,22.30
2018-04-20T14:58:15.518Z,23.17
2018-04-20T15:00:46.510Z,23.40
2018-04-20T15:03:17.602Z,21.97
2018-04-20T15:05:48.856Z,21.13
2018-04-20T15:08:20.293Z,23.40
2018-04-20T15:10:51.136Z,20.17
2018-04-20T15:13:22.196Z,20.77
2018-04-20T15:15:53.029Z,21.27
2018-04-20T15:18:23.926Z,19.80
2018-04-20T15:20:55.304Z,17.43
2018-04-20T15:23:26.290Z,17.30
2018-04-20T15:25:57.140Z,22.10
2018-04-20T15:28:28.447Z,26.07
2018-04-20T15:30:59.297Z,32.17
2018-04-20T15:33:31.121Z,35.50
2018-04-20T15:36:01.966Z,33.47
2018-04-20T15:38:33.198Z,38.23
2018-04-20T15:41:04.109Z,42.90
2018-04-20T15:43:35.551Z,35.07
2018-04-20T15:46:06.385Z,36.93
2018-04-20T15:48:37.361Z,35.57
2018-04-20T15:51:08.209Z,37.00
2018-04-20T15:53:39.053Z,37.70
2018-04-20T15:56:09.876Z,34.33
2018-04-20T15:58:41.106Z,35.93
2018-04-20T16:01:11.951Z,34.60
2018-04-20T16:03:42.974Z,46.43
2018-04-20T16:06:13.805Z,47.53
2018-04-20T16:08:44.901Z,50.83
2018-04-20T16:11:15.744Z,61.23
2018-04-20T16:13:47.080Z,57.83
2018-04-20T16:16:17.968Z,57.90
2018-04-20T16:18:48.846Z,58.70
2018-04-20T16:21:19.752Z,66.80
2018-04-20T16:23:50.772Z,64.50
2018-04-20T16:26:21.613Z,60.50
2018-04-20T16:28:52.934Z,65.60
2018-04-20T16:31:24.602Z,69.07
2018-04-20T16:33:55.557Z,69.70
2018-04-20T16:36:27.757Z,67.77
2018-04-20T16:39:00.409Z,62.73
2018-04-20T16:41:31.564Z,69.47
2018-04-20T16:44:02.749Z,72.67
2018-04-20T16:46:33.734Z,69.97
2018-04-20T16:49:04.750Z,70.80
2018-04-20T16:51:37.637Z,64.80
2018-04-20T16:54:09.545Z,66.10
2018-04-20T16:56:42.137Z,71.10
2018-04-20T16:59:13.625Z,66.90
2018-04-20T17:01:45.276Z,70.57
2018-04-20T17:04:17.125Z,67.77
2018-04-20T17:06:48.750Z,62.23
2018-04-20T17:09:19.882Z,66.83
2018-04-20T17:11:51.026Z,69.07
2018-04-20T17:14:21.975Z,66.87
2018-04-20T17:16:52.797Z,73.00
2018-04-20T17:19:24.757Z,65.03
2018-04-20T17:21:55.712Z,64.53
2018-04-20T17:24:26.553Z,69.20
2018-04-20T17:26:57.674Z,73.17
2018-04-20T17:29:28.694Z,72.60
2018-04-20T17:31:59.576Z,80.00
2018-04-20T17:34:30.872Z,80.37
2018-04-20T17:37:01.729Z,76.30
2018-04-20T17:39:32.774Z,81.70
2018-04-20T17:42:03.780Z,78.37
2018-04-20T17:44:35.586Z,81.37
2018-04-20T17:47:06.717Z,82.87
2018-04-20T17:49:37.572Z,81.37
2018-04-20T17:52:08.413Z,77.83
2018-04-20T17:54:39.808Z,77.03
2018-04-20T17:57:10.651Z,75.47
2018-04-20T17:59:41.670Z,77.20
2018-04-20T18:02:12.564Z,71.23
2018-04-20T18:04:43.505Z,70.47
2018-04-20T18:07:15.157Z,75.73
2018-04-20T18:09:46.144Z,69.27
2018-04-20T18:12:17.437Z,70.80
2018-04-20T18:14:48.430Z,69.93
2018-04-20T18:17:20.193Z,65.97
2018-04-20T18:19:51.714Z,73.20
2018-04-20T18:22:22.680Z,67.43
2018-04-20T18:24:54.961Z,72.47
2018-04-20T18:27:28.311Z,72.03
2018-04-20T18:30:04.091Z,74.33
2018-04-20T18:32:36.926Z,75.37
2018-04-20T18:35:11.162Z,77.50
2018-04-20T18:37:43.279Z,70.87
2018-04-20T18:40:15.308Z,71.20
2018-04-20T18:42:52.210Z,68.17
2018-04-20T18:45:24.540Z,69.97
2018-04-20T18:47:55.545Z,73.73
2018-04-20T18:50:26.431Z,71.40
2018-04-20T18:52:57.322Z,74.50
2018-04-20T18:55:28.246Z,75.67
2018-04-20T18:57:59.377Z,69.13
2018-04-20T19:00:31.106Z,77.07
2018-04-20T19:03:02.744Z,72.47
2018-04-20T19:05:34.206Z,71.40
2018-04-20T19:08:05.078Z,71.60
2018-04-20T19:10:36.057Z,77.93
2018-04-20T19:13:06.868Z,74.83
2018-04-20T19:15:38.282Z,70.07
2018-04-20T19:18:09.917Z,67.40
2018-04-20T19:20:40.983Z,66.13
2018-04-20T19:23:12.625Z,62.33
2018-04-20T19:25:44.596Z,71.37
2018-04-20T19:28:16.234Z,61.70
2018-04-20T19:30:49.494Z,61.57
2018-04-20T19:33:20.374Z,61.10
2018-04-20T19:35:51.297Z,56.63
2018-04-20T19:38:22.958Z,56.93
2018-04-20T19:40:53.973Z,58.17
2018-04-20T19:43:24.829Z,55.00
2018-04-20T19:45:56.031Z,53.13
2018-04-20T19:48:26.866Z,58.70
2018-04-20T19:50:57.733Z,55.37
2018-04-20T19:53:28.870Z,55.30
2018-04-20T19:55:59.888Z,55.33
2018-04-20T19:58:30.729Z,52.07
2018-04-20T20:01:02.029Z,61.33
2018-04-20T20:03:32.934Z,56.63
2018-04-20T20:06:03.963Z,59.27
2018-04-20T20:08:35.129Z,58.93
2018-04-20T20:11:06.272Z,55.50
2018-04-20T20:13:37.857Z,60.47
2018-04-20T20:16:09.029Z,58.73
2018-04-20T20:18:39.895Z,60.33
2018-04-20T20:21:10.844Z,62.73
2018-04-20T20:23:41.681Z,64.07
2018-04-20T20:26:12.558Z,61.50
2018-04-20T20:28:43.770Z,65.33
2018-04-20T20:31:15.675Z,67.73
2018-04-20T20:33:46.559Z,69.73
2018-04-20T20:36:18.366Z,66.90
2018-04-20T20:38:49.215Z,72.63
2018-04-20T20:41:20.451Z,65.60
2018-04-20T20:43:51.329Z,67.20
2018-04-20T20:46:23.214Z,65.80
2018-04-20T20:48:55.120Z,70.27
2018-04-20T20:51:26.034Z,67.30
2018-04-20T20:53:56.971Z,69.63
2018-04-20T20:56:28.062Z,65.03
2018-04-20T20:58:58.952Z,82.40
2018-04-20T21:01:30.141Z,74.13
2018-04-20T21:04:01.013Z,74.47
2018-04-20T21:06:32.809Z,72.33
2018-04-20T21:09:04.182Z,78.73
2018-04-20T21:11:35.405Z,74.27
2018-04-20T21:14:06.321Z,80.40
2018-04-20T21:16:37.593Z,81.13
2018-04-20T21:19:08.448Z,81.07
2018-04-20T21:21:39.341Z,89.97
2018-04-20T21:24:10.569Z,87.83
2018-04-20T21:26:41.613Z,97.37
2018-04-20T21:29:12.463Z,96.57
2018-04-20T21:31:43.377Z,98.87
2018-04-20T21:34:14.638Z,109.73
2018-04-20T21:36:45.982Z,115.90
2018-04-20T21:39:16.819Z,120.67
2018-04-20T21:41:47.835Z,120.07
2018-04-20T21:44:19.443Z,127.00
2018-04-20T21:46:50.713Z,125.17
2018-04-20T21:49:21.584Z,126.57
2018-04-20T21:51:52.462Z,132.23
2018-04-20T21:54:23.329Z,138.13
2018-04-20T21:56:54.233Z,125.20
2018-04-20T21:59:25.170Z,134.33
2018-04-20T22:01:56.231Z,128.40
2018-04-20T22:04:27.094Z,134.30
2018-04-20T22:06:58.203Z,130.53
2018-04-20T22:09:29.461Z,133.20
2018-04-20T22:12:00.558Z,130.20
2018-04-20T22:15:12.257Z,135.63
